Time;durP1;ratioP1;P1;durP2;ratioP2;P2;SDS_P1;SDS_P2;PMS_P1;PMS_P2;Temp;Humidity;BMP_temperature;BMP_pressure;BME280_temperature;BME280_humidity;BME280_pressure;Samples;Min_cycle;Max_cycle;Signal;HPM_P1;HPM_P2
2021/07/26 00:00:42;;;;;;;23.80;13.45;;;;;;;;;;5093028;28;20031;-67
2021/07/26 00:03:08;;;;;;;19.38;9.80;;;;;;;;;;5074886;28;20441;-67
2021/07/26 00:05:34;;;;;;;19.98;11.90;;;;;;;;;;5074853;28;20601;-67
2021/07/26 00:08:00;;;;;;;17.63;9.10;;;;;;;;;;5093137;28;20027;-67
2021/07/26 00:10:26;;;;;;;20.67;8.73;;;;;;;;;;5074966;28;20391;-67
2021/07/26 00:12:52;;;;;;;20.67;8.90;;;;;;;;;;5074429;28;20024;-66
2021/07/26 00:15:18;;;;;;;22.17;13.57;;;;;;;;;;5074325;28;20118;-67
2021/07/26 00:17:44;;;;;;;21.38;11.77;;;;;;;;;;5092752;28;20046;-67
2021/07/26 00:20:11;;;;;;;17.48;8.52;;;;;;;;;;5074404;28;20027;-67
2021/07/26 00:22:38;;;;;;;17.92;9.02;;;;;;;;;;5092234;28;20479;-70
2021/07/26 00:25:05;;;;;;;22.30;12.48;;;;;;;;;;5093174;28;20032;-66
2021/07/26 00:27:31;;;;;;;18.35;9.27;;;;;;;;;;5064170;28;20025;-66
2021/07/26 00:29:57;;;;;;;19.05;10.50;;;;;;;;;;5072531;28;20399;-66
2021/07/26 00:32:23;;;;;;;21.20;11.20;;;;;;;;;;5072234;28;20087;-66
2021/07/26 00:34:49;;;;;;;18.35;8.77;;;;;;;;;;5054109;28;20094;-66
2021/07/26 00:37:15;;;;;;;19.65;10.00;;;;;;;;;;5080115;28;20024;-67
2021/07/26 00:39:41;;;;;;;18.90;9.48;;;;;;;;;;5092567;28;20047;-67
2021/07/26 00:42:07;;;;;;;19.08;8.25;;;;;;;;;;5092271;28;20064;-67
2021/07/26 00:44:34;;;;;;;17.60;7.68;;;;;;;;;;5074351;28;20024;-66
2021/07/26 00:47:01;;;;;;;15.52;7.38;;;;;;;;;;5092070;28;20573;-66
2021/07/26 00:49:27;;;;;;;18.20;8.32;;;;;;;;;;5092395;28;20031;-67
2021/07/26 00:51:55;;;;;;;20.77;11.50;;;;;;;;;;5090582;28;20055;-67
2021/07/26 00:54:22;;;;;;;19.60;10.93;;;;;;;;;;5074110;28;20020;-66
2021/07/26 00:56:49;;;;;;;17.33;8.60;;;;;;;;;;5073962;28;20056;-65
2021/07/26 00:59:16;;;;;;;20.08;8.90;;;;;;;;;;5091980;28;20454;-66
2021/07/26 01:01:42;;;;;;;17.85;7.80;;;;;;;;;;5073448;28;20032;-66
2021/07/26 01:04:08;;;;;;;17.63;8.32;;;;;;;;;;5092150;28;20024;-67
2021/07/26 01:06:34;;;;;;;18.95;8.27;;;;;;;;;;5073822;28;20032;-67
2021/07/26 01:09:01;;;;;;;17.70;8.55;;;;;;;;;;5074067;28;20480;-67
2021/07/26 01:11:27;;;;;;;17.92;8.48;;;;;;;;;;5092056;28;20023;-67
2021/07/26 01:13:53;;;;;;;19.33;8.88;;;;;;;;;;5092229;28;20376;-66
2021/07/26 01:16:19;;;;;;;23.25;8.88;;;;;;;;;;5081267;28;20054;-67
2021/07/26 01:18:45;;;;;;;20.05;9.50;;;;;;;;;;5071824;28;20070;-67
2021/07/26 01:21:16;;;;;;;18.15;8.98;;;;;;;;;;5071850;28;20025;-67
2021/07/26 01:23:43;;;;;;;20.10;8.82;;;;;;;;;;5071760;28;20400;-67
2021/07/26 01:26:10;;;;;;;19.88;9.57;;;;;;;;;;5053650;28;20040;-67
2021/07/26 01:28:38;;;;;;;18.50;9.32;;;;;;;;;;5053944;28;20020;-67
2021/07/26 01:31:05;;;;;;;18.67;9.27;;;;;;;;;;5072553;28;20020;-67
2021/07/26 01:33:31;;;;;;;21.67;10.48;;;;;;;;;;5057908;28;20020;-66
2021/07/26 01:35:57;;;;;;;18.90;9.85;;;;;;;;;;5063869;28;20400;-66
2021/07/26 01:38:23;;;;;;;17.88;9.63;;;;;;;;;;5095670;28;20020;-67
2021/07/26 01:40:50;;;;;;;19.75;9.65;;;;;;;;;;5095650;28;20039;-66
2021/07/26 01:43:17;;;;;;;19.42;10.48;;;;;;;;;;5084726;28;20032;-66
2021/07/26 01:45:48;;;;;;;22.13;13.48;;;;;;;;;;5093357;28;20483;-67
2021/07/26 01:48:38;;;;;;;21.08;10.82;;;;;;;;;;5095789;28;20028;-67
2021/07/26 01:51:07;;;;;;;22.00;13.02;;;;;;;;;;5071950;28;20083;-67
2021/07/26 01:53:33;;;;;;;17.23;8.88;;;;;;;;;;5057173;28;20047;-67
2021/07/26 01:56:00;;;;;;;19.27;9.23;;;;;;;;;;5060874;28;20020;-67
2021/07/26 01:58:28;;;;;;;18.05;9.25;;;;;;;;;;5077680;28;20480;-67
2021/07/26 02:00:54;;;;;;;18.60;8.77;;;;;;;;;;5096071;28;20035;-66
2021/07/26 02:03:20;;;;;;;19.10;9.25;;;;;;;;;;5077706;28;20438;-67
2021/07/26 02:05:46;;;;;;;21.75;11.48;;;;;;;;;;5095252;28;20068;-66
2021/07/26 02:08:12;;;;;;;22.88;11.60;;;;;;;;;;5077574;28;20024;-66
2021/07/26 02:10:38;;;;;;;21.23;11.38;;;;;;;;;;5093959;28;20111;-66
2021/07/26 02:13:04;;;;;;;19.77;8.88;;;;;;;;;;5074867;28;20024;-66
2021/07/26 02:15:30;;;;;;;23.13;9.57;;;;;;;;;;5075019;28;20038;-66
2021/07/26 02:17:55;;;;;;;19.52;9.32;;;;;;;;;;5057376;28;20058;-66
2021/07/26 02:20:21;;;;;;;24.35;14.60;;;;;;;;;;5070219;28;20415;-66
2021/07/26 02:22:48;;;;;;;25.15;13.93;;;;;;;;;;5095026;28;20074;-66
2021/07/26 02:25:14;;;;;;;20.45;10.05;;;;;;;;;;5076530;28;20028;-66
2021/07/26 02:27:40;;;;;;;19.58;10.10;;;;;;;;;;5094848;28;20016;-67
2021/07/26 02:30:06;;;;;;;21.33;11.15;;;;;;;;;;5076158;28;20124;-66
2021/07/26 02:32:32;;;;;;;19.92;10.23;;;;;;;;;;5075860;28;20097;-67
2021/07/26 02:34:58;;;;;;;20.63;9.65;;;;;;;;;;5076872;28;20464;-66
2021/07/26 02:37:24;;;;;;;19.65;9.82;;;;;;;;;;5076330;28;20020;-67
2021/07/26 02:39:50;;;;;;;22.27;10.10;;;;;;;;;;5076952;28;20032;-67
2021/07/26 02:42:16;;;;;;;20.02;10.05;;;;;;;;;;5111778;22;20026;-68
2021/07/26 02:44:42;;;;;;;20.48;9.93;;;;;;;;;;5053023;28;20473;-69
2021/07/26 02:47:08;;;;;;;21.50;10.10;;;;;;;;;;5052686;28;20039;-68
2021/07/26 02:49:34;;;;;;;18.10;9.52;;;;;;;;;;5036103;28;20029;-69
2021/07/26 02:52:00;;;;;;;17.77;9.15;;;;;;;;;;5066867;28;20372;-69
2021/07/26 02:54:26;;;;;;;19.92;9.73;;;;;;;;;;5054906;28;20089;-69
2021/07/26 02:56:52;;;;;;;20.40;12.40;;;;;;;;;;5055072;28;20548;-69
2021/07/26 02:59:18;;;;;;;20.33;9.07;;;;;;;;;;5073302;28;20024;-69
2021/07/26 03:01:44;;;;;;;23.92;10.15;;;;;;;;;;5055185;28;20036;-69
2021/07/26 03:04:10;;;;;;;20.80;11.73;;;;;;;;;;5072849;28;20017;-69
2021/07/26 03:06:36;;;;;;;21.60;10.95;;;;;;;;;;5072024;28;20031;-69
2021/07/26 03:09:02;;;;;;;20.35;11.32;;;;;;;;;;5073142;28;20028;-68
2021/07/26 03:11:28;;;;;;;20.10;10.25;;;;;;;;;;5073043;28;20039;-69
2021/07/26 03:13:54;;;;;;;21.63;12.90;;;;;;;;;;5054752;28;20064;-69
2021/07/26 03:16:21;;;;;;;19.40;11.38;;;;;;;;;;5072369;28;20028;-69
2021/07/26 03:18:47;;;;;;;21.73;13.52;;;;;;;;;;5072641;28;20031;-69
2021/07/26 03:21:14;;;;;;;21.08;11.38;;;;;;;;;;5054459;28;20029;-69
2021/07/26 03:23:40;;;;;;;22.48;11.27;;;;;;;;;;5072424;28;20036;-69
2021/07/26 03:26:06;;;;;;;22.33;10.88;;;;;;;;;;5053553;28;20098;-69
2021/07/26 03:28:32;;;;;;;24.65;12.48;;;;;;;;;;5071995;28;20534;-70
2021/07/26 03:30:59;;;;;;;18.58;9.45;;;;;;;;;;5054272;28;20544;-70
2021/07/26 03:33:25;;;;;;;17.73;8.95;;;;;;;;;;5072258;28;20048;-68
2021/07/26 03:35:51;;;;;;;21.70;9.82;;;;;;;;;;5071927;28;20021;-68
2021/07/26 03:38:19;;;;;;;17.92;9.07;;;;;;;;;;5071842;28;20070;-68
2021/07/26 03:40:47;;;;;;;18.33;8.93;;;;;;;;;;5053898;28;20537;-68
2021/07/26 03:43:13;;;;;;;19.17;9.35;;;;;;;;;;5053327;28;20456;-67
2021/07/26 03:45:39;;;;;;;21.23;9.55;;;;;;;;;;5053131;28;20044;-69
2021/07/26 03:48:05;;;;;;;21.50;9.05;;;;;;;;;;5071911;28;20029;-69
2021/07/26 03:50:31;;;;;;;19.35;9.40;;;;;;;;;;5053654;28;20025;-69
2021/07/26 03:52:58;;;;;;;18.80;9.40;;;;;;;;;;5053607;28;20178;-69
2021/07/26 03:55:34;;;;;;;19.02;8.90;;;;;;;;;;5070432;28;20549;-69
2021/07/26 03:58:00;;;;;;;19.77;8.88;;;;;;;;;;5071692;28;20028;-69
2021/07/26 04:00:29;;;;;;;19.08;8.68;;;;;;;;;;5071646;28;20032;-69
2021/07/26 04:03:08;;;;;;;18.67;9.40;;;;;;;;;;5071525;28;20112;-68
2021/07/26 04:05:37;;;;;;;20.27;9.45;;;;;;;;;;5052703;28;20024;-69
2021/07/26 04:08:11;;;;;;;20.05;9.30;;;;;;;;;;5071332;28;20017;-69
2021/07/26 04:10:40;;;;;;;20.55;8.70;;;;;;;;;;5071247;28;20095;-69
2021/07/26 04:13:06;;;;;;;19.55;9.20;;;;;;;;;;5071626;28;20021;-69
2021/07/26 04:15:32;;;;;;;17.52;8.60;;;;;;;;;;5052536;28;20031;-69
2021/07/26 04:17:58;;;;;;;18.05;8.25;;;;;;;;;;5053647;28;20025;-68
2021/07/26 04:20:24;;;;;;;18.65;8.13;;;;;;;;;;5071519;28;20056;-67
2021/07/26 04:22:50;;;;;;;20.27;8.80;;;;;;;;;;5071378;28;20059;-69
2021/07/26 04:25:17;;;;;;;18.70;8.35;;;;;;;;;;5070870;28;20476;-69
2021/07/26 04:27:42;;;;;;;17.05;8.45;;;;;;;;;;5053370;28;20060;-69
2021/07/26 04:30:09;;;;;;;19.25;9.18;;;;;;;;;;5071323;28;20330;-69
2021/07/26 04:32:41;;;;;;;18.65;9.20;;;;;;;;;;5071039;28;20017;-69
2021/07/26 04:35:09;;;;;;;19.98;8.63;;;;;;;;;;5071044;28;20079;-69
2021/07/26 04:37:35;;;;;;;18.25;8.88;;;;;;;;;;5071038;28;20468;-69
2021/07/26 04:40:01;;;;;;;22.55;9.57;;;;;;;;;;5071022;28;20503;-69
2021/07/26 04:42:26;;;;;;;17.33;8.70;;;;;;;;;;5052947;28;20052;-69
2021/07/26 04:44:52;;;;;;;18.50;9.15;;;;;;;;;;5070580;28;20397;-68
2021/07/26 04:47:18;;;;;;;18.23;8.48;;;;;;;;;;5070582;28;20037;-69
2021/07/26 04:49:44;;;;;;;22.33;9.45;;;;;;;;;;5052691;28;20024;-69
2021/07/26 04:52:10;;;;;;;18.63;8.70;;;;;;;;;;5070761;28;20020;-69
2021/07/26 04:54:36;;;;;;;18.67;8.88;;;;;;;;;;5070925;28;20028;-69
2021/07/26 04:57:02;;;;;;;20.02;9.48;;;;;;;;;;5070325;28;20051;-69
2021/07/26 04:59:28;;;;;;;20.10;9.13;;;;;;;;;;5070645;28;20028;-69
2021/07/26 05:01:54;;;;;;;18.30;8.85;;;;;;;;;;5070683;28;20032;-69
2021/07/26 05:04:20;;;;;;;17.85;8.00;;;;;;;;;;5070855;28;20130;-69
2021/07/26 05:06:46;;;;;;;18.88;8.82;;;;;;;;;;5054040;28;20063;-69
2021/07/26 05:09:13;;;;;;;23.25;8.35;;;;;;;;;;5074677;28;20043;-66
2021/07/26 05:11:40;;;;;;;17.58;8.25;;;;;;;;;;5073934;28;20032;-70
2021/07/26 05:14:07;;;;;;;19.30;8.23;;;;;;;;;;5074799;28;20017;-70
2021/07/26 05:16:34;;;;;;;18.90;7.45;;;;;;;;;;5056595;28;20673;-69
2021/07/26 05:19:00;;;;;;;16.00;7.47;;;;;;;;;;5074235;28;20021;-69
2021/07/26 05:21:26;;;;;;;16.33;7.25;;;;;;;;;;5074659;28;20035;-69
2021/07/26 05:23:52;;;;;;;20.45;7.57;;;;;;;;;;5074347;28;20036;-69
2021/07/26 05:26:18;;;;;;;21.65;9.05;;;;;;;;;;5074060;28;20070;-69
2021/07/26 05:28:44;;;;;;;18.90;7.32;;;;;;;;;;5074435;28;20017;-69
2021/07/26 05:31:10;;;;;;;17.83;7.50;;;;;;;;;;5056637;28;20097;-69
2021/07/26 05:33:36;;;;;;;16.85;7.00;;;;;;;;;;5073668;28;20024;-69
2021/07/26 05:36:02;;;;;;;15.52;7.20;;;;;;;;;;5074060;28;20472;-69
2021/07/26 05:38:28;;;;;;;16.48;6.93;;;;;;;;;;5074271;28;20035;-68
2021/07/26 05:40:54;;;;;;;18.95;8.52;;;;;;;;;;5038977;28;20400;-69
2021/07/26 05:43:20;;;;;;;17.08;7.88;;;;;;;;;;5053678;28;20040;-68
2021/07/26 05:45:46;;;;;;;18.15;7.78;;;;;;;;;;5053666;28;20033;-70
2021/07/26 05:48:12;;;;;;;17.38;8.02;;;;;;;;;;5035719;28;20143;-68
2021/07/26 05:50:38;;;;;;;18.60;7.47;;;;;;;;;;5054013;28;20402;-70
2021/07/26 05:53:05;;;;;;;17.15;7.63;;;;;;;;;;5053796;28;20024;-68
2021/07/26 05:55:32;;;;;;;17.63;6.93;;;;;;;;;;5053354;28;20025;-69
2021/07/26 05:58:00;;;;;;;17.17;6.93;;;;;;;;;;5053765;28;20036;-69
2021/07/26 06:00:36;;;;;;;17.95;7.57;;;;;;;;;;5053789;28;20075;-68
2021/07/26 06:03:02;;;;;;;18.13;7.38;;;;;;;;;;5053567;28;20025;-69
2021/07/26 06:05:28;;;;;;;18.23;7.28;;;;;;;;;;5039668;28;20135;-69
2021/07/26 06:07:54;;;;;;;17.95;7.57;;;;;;;;;;5055739;28;20108;-70
2021/07/26 06:10:20;;;;;;;17.88;7.57;;;;;;;;;;5073655;28;20023;-69
2021/07/26 06:12:46;;;;;;;18.23;7.82;;;;;;;;;;5055710;28;20490;-69
2021/07/26 06:15:12;;;;;;;19.25;7.72;;;;;;;;;;5057760;28;20055;-70
2021/07/26 06:17:38;;;;;;;16.60;7.57;;;;;;;;;;5052229;28;20029;-68
2021/07/26 06:20:06;;;;;;;19.13;7.90;;;;;;;;;;5053712;28;20036;-66
2021/07/26 06:22:32;;;;;;;16.40;7.60;;;;;;;;;;5035531;28;20108;-67
2021/07/26 06:24:58;;;;;;;16.00;7.43;;;;;;;;;;5035539;28;20129;-66
2021/07/26 06:27:24;;;;;;;18.55;7.35;;;;;;;;;;5035039;28;20029;-67
2021/07/26 06:29:52;;;;;;;16.35;7.45;;;;;;;;;;5053168;28;20048;-67
2021/07/26 06:32:18;;;;;;;15.68;7.05;;;;;;;;;;5052827;28;20055;-67
2021/07/26 06:34:44;;;;;;;14.88;6.53;;;;;;;;;;5068088;28;20021;-67
2021/07/26 06:37:10;;;;;;;16.02;7.03;;;;;;;;;;5072783;28;20123;-67
2021/07/26 06:39:36;;;;;;;15.85;7.25;;;;;;;;;;5072955;28;20554;-69
2021/07/26 06:42:03;;;;;;;14.90;6.85;;;;;;;;;;5054972;28;20036;-68
2021/07/26 06:44:29;;;;;;;15.93;6.88;;;;;;;;;;5035455;28;20470;-69
2021/07/26 06:46:55;;;;;;;16.30;7.88;;;;;;;;;;5052524;28;20483;-66
2021/07/26 06:49:21;;;;;;;16.40;6.88;;;;;;;;;;5034977;28;20025;-66
2021/07/26 06:51:47;;;;;;;19.33;7.40;;;;;;;;;;5035192;28;20021;-67
2021/07/26 06:54:13;;;;;;;18.13;7.18;;;;;;;;;;5052359;28;20104;-66
2021/07/26 06:56:39;;;;;;;17.67;7.05;;;;;;;;;;5034560;28;20123;-67
2021/07/26 06:59:05;;;;;;;16.67;7.88;;;;;;;;;;5034584;28;20025;-65
2021/07/26 07:01:31;;;;;;;18.08;7.03;;;;;;;;;;5056778;28;20028;-67
2021/07/26 07:03:57;;;;;;;15.45;7.15;;;;;;;;;;5072351;28;20032;-67
2021/07/26 07:06:23;;;;;;;21.83;7.78;;;;;;;;;;5054241;28;20046;-69
2021/07/26 07:08:50;;;;;;;17.05;7.78;;;;;;;;;;5053917;28;20024;-65
2021/07/26 07:11:17;;;;;;;17.90;7.35;;;;;;;;;;5054321;28;20024;-66
2021/07/26 07:13:43;;;;;;;17.02;7.75;;;;;;;;;;5072240;28;20024;-66
2021/07/26 07:16:17;;;;;;;15.55;7.57;;;;;;;;;;5053934;28;20024;-67
2021/07/26 07:18:44;;;;;;;18.98;7.88;;;;;;;;;;5052355;28;20075;-67
2021/07/26 07:21:15;;;;;;;15.60;6.88;;;;;;;;;;5034365;28;20125;-67
2021/07/26 07:23:41;;;;;;;15.32;7.20;;;;;;;;;;5034592;28;20028;-65
2021/07/26 07:26:07;;;;;;;15.45;7.20;;;;;;;;;;5034364;28;20029;-67
2021/07/26 07:28:33;;;;;;;16.48;7.38;;;;;;;;;;5053295;28;20021;-66
2021/07/26 07:30:59;;;;;;;15.93;7.50;;;;;;;;;;5051596;28;20492;-67
2021/07/26 07:33:25;;;;;;;16.88;7.50;;;;;;;;;;5072650;28;20031;-67
2021/07/26 07:35:51;;;;;;;14.93;6.97;;;;;;;;;;5071385;28;20029;-67
2021/07/26 07:38:18;;;;;;;15.73;7.40;;;;;;;;;;5052833;28;20036;-67
2021/07/26 07:40:44;;;;;;;15.90;7.38;;;;;;;;;;5072095;28;20032;-64
2021/07/26 07:43:10;;;;;;;15.70;7.15;;;;;;;;;;5035761;28;20041;-66
2021/07/26 07:45:36;;;;;;;16.20;7.18;;;;;;;;;;5034136;28;20028;-66
2021/07/26 07:48:02;;;;;;;16.42;7.45;;;;;;;;;;5051919;28;20457;-66
2021/07/26 07:50:28;;;;;;;16.38;6.80;;;;;;;;;;5051834;28;20102;-66
2021/07/26 07:52:55;;;;;;;15.23;7.10;;;;;;;;;;5052134;28;20032;-65
2021/07/26 07:55:21;;;;;;;16.13;7.35;;;;;;;;;;5051844;28;20013;-67
2021/07/26 07:57:52;;;;;;;15.48;7.30;;;;;;;;;;5040112;28;20203;-65
2021/07/26 08:00:18;;;;;;;15.25;7.72;;;;;;;;;;5071507;28;20020;-67
2021/07/26 08:02:44;;;;;;;17.42;7.72;;;;;;;;;;5071650;28;20023;-65
2021/07/26 08:05:11;;;;;;;15.60;8.00;;;;;;;;;;5071198;28;20407;-64
2021/07/26 08:07:37;;;;;;;18.33;8.45;;;;;;;;;;5071499;28;20059;-63
2021/07/26 08:10:04;;;;;;;17.38;7.82;;;;;;;;;;5071581;28;20047;-65
2021/07/26 08:12:32;;;;;;;18.42;8.07;;;;;;;;;;5071301;28;20065;-65
2021/07/26 08:14:58;;;;;;;17.73;8.90;;;;;;;;;;5071121;28;20100;-65
2021/07/26 08:17:24;;;;;;;17.13;8.88;;;;;;;;;;5070806;28;20380;-65
2021/07/26 08:19:50;;;;;;;16.92;9.20;;;;;;;;;;5070916;28;20024;-65
2021/07/26 08:22:16;;;;;;;17.52;9.27;;;;;;;;;;5052929;28;20214;-65
2021/07/26 08:24:42;;;;;;;17.20;9.48;;;;;;;;;;5052849;28;20107;-66
2021/07/26 08:27:08;;;;;;;16.10;8.40;;;;;;;;;;5070731;28;20111;-65
2021/07/26 08:29:34;;;;;;;15.73;8.70;;;;;;;;;;5071100;28;20373;-64
2021/07/26 08:32:00;;;;;;;15.23;8.50;;;;;;;;;;5070602;28;20097;-65
2021/07/26 08:34:26;;;;;;;16.40;8.77;;;;;;;;;;5071346;28;20035;-66
2021/07/26 08:36:55;;;;;;;15.48;8.70;;;;;;;;;;5070376;28;20453;-66
2021/07/26 08:39:21;;;;;;;16.67;8.85;;;;;;;;;;5071244;28;20028;-62
2021/07/26 08:41:47;;;;;;;16.38;8.60;;;;;;;;;;5064614;28;20484;-64
2021/07/26 08:44:13;;;;;;;16.83;9.27;;;;;;;;;;5066638;22;20045;-63
2021/07/26 08:46:42;;;;;;;16.65;9.60;;;;;;;;;;5050678;28;20041;-63
2021/07/26 08:49:09;;;;;;;16.33;8.40;;;;;;;;;;5033745;28;20197;-63
2021/07/26 08:51:35;;;;;;;17.20;9.38;;;;;;;;;;5051547;28;20029;-63
2021/07/26 08:54:02;;;;;;;16.67;8.98;;;;;;;;;;5032917;28;20056;-63
2021/07/26 08:56:28;;;;;;;15.30;9.05;;;;;;;;;;5051398;28;20094;-63
2021/07/26 08:58:54;;;;;;;17.05;9.85;;;;;;;;;;5051497;28;20033;-64
2021/07/26 09:01:20;;;;;;;15.00;8.80;;;;;;;;;;5015405;28;20111;-63
2021/07/26 09:03:50;;;;;;;15.60;9.38;;;;;;;;;;5031502;28;20052;-63
2021/07/26 09:06:16;;;;;;;15.43;9.20;;;;;;;;;;5031433;28;20570;-63
2021/07/26 09:08:42;;;;;;;16.13;9.40;;;;;;;;;;5031977;28;20101;-62
2021/07/26 09:11:09;;;;;;;15.30;9.20;;;;;;;;;;5031781;28;20045;-62
2021/07/26 09:13:36;;;;;;;15.70;9.48;;;;;;;;;;5031357;28;20022;-63
2021/07/26 09:16:15;;;;;;;16.17;9.30;;;;;;;;;;5014095;28;20053;-63
2021/07/26 09:18:42;;;;;;;18.90;9.82;;;;;;;;;;5023717;28;20056;-61
2021/07/26 09:21:08;;;;;;;15.45;9.43;;;;;;;;;;5033375;28;20112;-62
2021/07/26 09:23:38;;;;;;;15.68;9.23;;;;;;;;;;5051555;28;20024;-63
2021/07/26 09:26:24;;;;;;;15.48;9.05;;;;;;;;;;5038161;28;20112;-61
2021/07/26 09:28:50;;;;;;;15.68;9.15;;;;;;;;;;5044052;28;20055;-62
2021/07/26 09:31:16;;;;;;;15.98;8.98;;;;;;;;;;5057162;28;20392;-62
2021/07/26 09:33:43;;;;;;;15.05;8.82;;;;;;;;;;5056670;28;20070;-60
2021/07/26 09:36:09;;;;;;;17.70;8.80;;;;;;;;;;5053696;28;20029;-63
2021/07/26 09:38:38;;;;;;;14.90;8.68;;;;;;;;;;5033699;28;20393;-64
2021/07/26 09:41:05;;;;;;;15.50;8.95;;;;;;;;;;5051064;28;20538;-63
2021/07/26 09:43:32;;;;;;;15.07;9.07;;;;;;;;;;5051400;28;20033;-65
2021/07/26 09:45:59;;;;;;;15.52;9.43;;;;;;;;;;5032215;28;20401;-63
2021/07/26 09:48:26;;;;;;;16.67;9.60;;;;;;;;;;5051254;28;20063;-64
2021/07/26 09:50:52;;;;;;;15.20;9.20;;;;;;;;;;5051319;28;20037;-63
2021/07/26 09:53:22;;;;;;;15.52;9.73;;;;;;;;;;5034739;28;20078;-63
2021/07/26 09:55:50;;;;;;;14.98;9.20;;;;;;;;;;5053966;28;20029;-63
2021/07/26 09:58:17;;;;;;;16.45;9.73;;;;;;;;;;5054122;28;20500;-62
2021/07/26 10:00:45;;;;;;;16.23;9.45;;;;;;;;;;5054634;28;20416;-63
2021/07/26 10:03:12;;;;;;;15.57;9.65;;;;;;;;;;5054774;28;20021;-63
2021/07/26 10:05:40;;;;;;;15.80;9.53;;;;;;;;;;5054474;28;20025;-62
2021/07/26 10:08:07;;;;;;;15.35;9.38;;;;;;;;;;5055069;28;20017;-64
2021/07/26 10:10:37;;;;;;;15.10;9.10;;;;;;;;;;5054702;28;20025;-67
2021/07/26 10:13:04;;;;;;;15.85;9.40;;;;;;;;;;5036484;28;20067;-63
2021/07/26 10:15:32;;;;;;;16.25;9.50;;;;;;;;;;5053571;28;20392;-63
2021/07/26 10:17:58;;;;;;;15.68;9.50;;;;;;;;;;5054620;28;20021;-63
2021/07/26 10:20:28;;;;;;;15.75;9.85;;;;;;;;;;5054763;28;20017;-63
2021/07/26 10:22:54;;;;;;;16.35;10.40;;;;;;;;;;5036504;28;20154;-63
2021/07/26 10:25:41;;;;;;;15.20;9.73;;;;;;;;;;5053831;28;20130;-63
2021/07/26 10:28:12;;;;;;;15.80;9.88;;;;;;;;;;5054063;28;20017;-63
2021/07/26 10:30:39;;;;;;;15.68;9.90;;;;;;;;;;5036379;28;20492;-64
2021/07/26 10:33:05;;;;;;;14.93;9.27;;;;;;;;;;5054080;28;20098;-62
2021/07/26 10:35:35;;;;;;;15.98;9.40;;;;;;;;;;5035853;28;20021;-62
2021/07/26 10:38:01;;;;;;;18.00;10.15;;;;;;;;;;5053866;28;20020;-63
2021/07/26 10:40:31;;;;;;;17.42;10.40;;;;;;;;;;5036220;28;20025;-63
2021/07/26 10:43:01;;;;;;;17.55;10.30;;;;;;;;;;5045603;28;20040;-61
2021/07/26 10:45:33;;;;;;;15.20;9.50;;;;;;;;;;5053443;28;20013;-63
2021/07/26 10:48:17;;;;;;;15.00;9.48;;;;;;;;;;5053709;28;20044;-63
2021/07/26 10:50:47;;;;;;;14.82;9.88;;;;;;;;;;5035522;28;20466;-62
2021/07/26 10:53:33;;;;;;;16.88;10.27;;;;;;;;;;5053594;28;20021;-64
2021/07/26 10:56:05;;;;;;;15.80;10.55;;;;;;;;;;5053294;28;20120;-63
2021/07/26 10:58:40;;;;;;;16.20;9.78;;;;;;;;;;4703270;28;10001169;-62
2021/07/26 11:01:22;;;;;;;15.68;10.48;;;;;;;;;;5050541;28;20017;-62
2021/07/26 11:03:48;;;;;;;15.60;10.45;;;;;;;;;;5049830;28;20156;-61
2021/07/26 11:06:33;;;;;;;16.30;10.88;;;;;;;;;;5050694;28;20473;-62
2021/07/26 11:09:17;;;;;;;15.55;10.38;;;;;;;;;;5051064;28;20382;-64
2021/07/26 11:11:43;;;;;;;16.40;10.70;;;;;;;;;;5032634;28;20497;-64
2021/07/26 11:14:10;;;;;;;16.52;10.82;;;;;;;;;;5050377;28;20071;-64
2021/07/26 11:16:48;;;;;;;17.50;11.20;;;;;;;;;;5050212;28;20063;-63
2021/07/26 11:19:29;;;;;;;16.27;10.40;;;;;;;;;;5050283;28;20433;-66
2021/07/26 11:21:55;;;;;;;16.63;10.88;;;;;;;;;;5041213;28;20033;-66
2021/07/26 11:24:43;;;;;;;17.92;11.82;;;;;;;;;;5038591;28;20060;-66
2021/07/26 11:27:10;;;;;;;17.58;11.57;;;;;;;;;;5021521;28;20047;-65
2021/07/26 11:29:36;;;;;;;18.20;11.73;;;;;;;;;;5036573;28;20025;-64
2021/07/26 11:32:02;;;;;;;19.25;10.77;;;;;;;;;;5042397;28;20021;-65
2021/07/26 11:34:28;;;;;;;17.95;12.00;;;;;;;;;;5040192;28;20025;-64
2021/07/26 11:37:04;;;;;;;17.00;11.10;;;;;;;;;;5012754;28;20029;-67
2021/07/26 11:39:48;;;;;;;16.95;11.38;;;;;;;;;;5041897;28;20561;-68
2021/07/26 11:42:18;;;;;;;16.63;11.20;;;;;;;;;;5044334;28;20026;-67
2021/07/26 11:44:46;;;;;;;16.10;10.88;;;;;;;;;;5029909;28;20456;-67
2021/07/26 11:47:13;;;;;;;16.45;11.27;;;;;;;;;;5030354;28;20064;-67
2021/07/26 11:49:45;;;;;;;16.70;11.40;;;;;;;;;;5034600;28;20087;-65
2021/07/26 11:52:11;;;;;;;17.52;11.55;;;;;;;;;;5029894;28;20029;-66
2021/07/26 11:54:37;;;;;;;15.63;11.13;;;;;;;;;;5014260;28;20052;-66
2021/07/26 11:57:07;;;;;;;16.60;10.85;;;;;;;;;;5032350;28;20029;-67
2021/07/26 11:59:34;;;;;;;16.75;11.02;;;;;;;;;;5029905;28;20736;-67
2021/07/26 12:02:05;;;;;;;16.98;11.05;;;;;;;;;;5037132;28;20831;-67
2021/07/26 12:04:31;;;;;;;17.08;11.77;;;;;;;;;;5051556;28;20029;-67
2021/07/26 12:06:58;;;;;;;15.90;11.10;;;;;;;;;;5050933;28;20369;-66
2021/07/26 12:09:24;;;;;;;16.52;11.45;;;;;;;;;;5032889;28;20024;-66
2021/07/26 12:11:51;;;;;;;16.23;11.30;;;;;;;;;;5052083;28;20028;-66
2021/07/26 12:14:32;;;;;;;16.20;12.20;;;;;;;;;;5051917;28;20036;-67
2021/07/26 12:16:58;;;;;;;16.90;11.98;;;;;;;;;;5050973;28;20083;-67
2021/07/26 12:19:24;;;;;;;17.52;11.93;;;;;;;;;;5051130;28;20025;-67
2021/07/26 12:21:50;;;;;;;19.20;11.68;;;;;;;;;;5051509;28;20020;-65
2021/07/26 12:24:16;;;;;;;16.15;11.32;;;;;;;;;;5033846;28;20029;-67
2021/07/26 12:27:01;;;;;;;17.20;11.80;;;;;;;;;;5051744;28;20037;-67
2021/07/26 12:29:29;;;;;;;17.75;11.80;;;;;;;;;;5033591;28;20051;-67
2021/07/26 12:32:04;;;;;;;16.65;11.10;;;;;;;;;;5051423;28;20124;-67
2021/07/26 12:34:30;;;;;;;16.35;11.75;;;;;;;;;;5051476;28;20031;-67
2021/07/26 12:37:06;;;;;;;17.05;12.00;;;;;;;;;;5050866;28;20120;-67
2021/07/26 12:39:37;;;;;;;16.42;12.35;;;;;;;;;;5051183;28;20053;-67
2021/07/26 12:42:19;;;;;;;17.20;12.43;;;;;;;;;;5051308;28;20088;-68
2021/07/26 12:44:45;;;;;;;19.15;12.82;;;;;;;;;;5051650;28;20083;-67
2021/07/26 12:47:25;;;;;;;15.55;12.15;;;;;;;;;;5051268;28;20554;-67
2021/07/26 12:49:51;;;;;;;16.42;11.80;;;;;;;;;;5050257;28;20086;-67
2021/07/26 12:52:17;;;;;;;16.30;12.48;;;;;;;;;;5051641;28;20029;-67
2021/07/26 12:54:43;;;;;;;16.77;12.60;;;;;;;;;;5032251;28;20019;-67
2021/07/26 12:57:09;;;;;;;16.38;12.10;;;;;;;;;;5050990;28;20089;-68
2021/07/26 12:59:35;;;;;;;15.93;11.88;;;;;;;;;;5033134;28;20492;-66
2021/07/26 13:02:01;;;;;;;16.27;12.32;;;;;;;;;;5033849;28;20029;-67
2021/07/26 13:04:27;;;;;;;15.75;12.15;;;;;;;;;;5050409;28;20484;-66
2021/07/26 13:06:53;;;;;;;16.55;13.10;;;31.50;77.70;;;;;;5050372;28;20021;-66
2021/07/26 13:09:18;;;;;;;17.60;13.95;;;33.60;96.30;;;;;;5050481;28;20025;-66
2021/07/26 13:11:44;;;;;;;17.23;13.20;;;34.00;95.30;;;;;;5033087;28;20480;-67
2021/07/26 13:14:09;;;;;;;16.33;13.10;;;34.10;94.40;;;;;;5050411;28;20021;-66
2021/07/26 13:16:35;;;;;;;16.05;13.00;;;;;;;;;;5049208;28;20424;-66
2021/07/26 13:19:01;;;;;;;18.98;13.40;;;;;;;;;;5032952;28;20032;-66
2021/07/26 13:21:27;;;;;;;16.17;12.95;;;;;;;;;;5050723;28;20021;-66
2021/07/26 13:23:53;;;;;;;15.68;12.85;;;;;;;;;;5050083;28;20508;-66
2021/07/26 13:26:19;;;;;;;16.92;13.35;;;33.10;94.50;;;;;;5050185;28;20409;-66
2021/07/26 13:28:45;;;;;;;16.35;12.75;;;32.40;95.60;;;;;;5036651;28;20032;-67
2021/07/26 13:31:11;;;;;;;18.30;13.38;;;32.50;94.90;;;;;;5037720;28;20017;-67
2021/07/26 13:33:37;;;;;;;16.25;12.90;;;;;;;;;;5036945;28;20025;-67
2021/07/26 13:36:05;;;;;;;16.17;12.35;;;;;;;;;;5037256;28;20060;-66
2021/07/26 13:38:31;;;;;;;15.80;12.32;;;33.20;94.60;;;;;;5054675;28;20115;-66
2021/07/26 13:40:56;;;;;;;16.30;12.75;;;33.60;93.30;;;;;;5053728;28;20100;-65
2021/07/26 13:43:22;;;;;;;18.17;12.25;;;32.40;93.40;;;;;;5035180;28;20036;-67
2021/07/26 13:45:48;;;;;;;15.80;12.20;;;;;;;;;;5036392;28;20040;-66
2021/07/26 13:48:14;;;;;;;18.17;11.93;;;;;;;;;;5053664;28;20021;-66
2021/07/26 13:50:41;;;;;;;16.25;12.82;;;;;;;;;;5054432;28;20048;-68
2021/07/26 13:53:07;;;;;;;17.47;13.30;;;;;;;;;;5036118;28;20432;-66
2021/07/26 13:55:34;;;;;;;16.50;12.70;;;;;;;;;;5053519;28;20279;-67
2021/07/26 13:58:00;;;;;;;16.80;12.70;;;;;;;;;;5054276;28;20475;-67
2021/07/26 14:00:26;;;;;;;18.13;12.20;;;;;;;;;;5054396;28;20056;-67
2021/07/26 14:02:52;;;;;;;16.23;11.98;;;;;;;;;;5036271;28;20021;-66
2021/07/26 14:05:18;;;;;;;17.58;12.15;;;;;;;;;;5053566;28;20017;-66
2021/07/26 14:07:44;;;;;;;16.23;12.38;;;;;;;;;;5036168;28;20029;-66
2021/07/26 14:10:11;;;;;;;16.30;12.43;;;;;;;;;;5036634;28;20044;-66
2021/07/26 14:12:37;;;;;;;18.35;12.52;;;;;;;;;;5035555;28;20410;-66
2021/07/26 14:15:04;;;;;;;17.05;12.80;;;;;;;;;;5054311;28;20044;-66
2021/07/26 14:17:30;;;;;;;17.40;12.50;;;;;;;;;;5050117;28;20148;-67
2021/07/26 14:19:56;;;;;;;16.58;12.65;;;;;;;;;;5034372;28;20029;-66
2021/07/26 14:22:22;;;;;;;16.63;12.95;;;;;;;;;;5034674;28;20021;-66